sensor_id;sensor_type;location;lat;lon;timestamp;P1;durP1;ratioP1;P2;durP2;ratioP2
72087;SDS011;59961;50.232;8.616;2023-07-22T00:00:10;10.90;;;6.35;;
72087;SDS011;59961;50.232;8.616;2023-07-22T00:02:39;12.75;;;6.43;;
72087;SDS011;59961;50.232;8.616;2023-07-22T00:05:05;12.57;;;6.80;;
72087;SDS011;59961;50.232;8.616;2023-07-22T00:07:30;16.77;;;6.00;;
72087;SDS011;59961;50.232;8.616;2023-07-22T00:09:55;10.88;;;6.55;;
72087;SDS011;59961;50.232;8.616;2023-07-22T00:12:20;13.10;;;6.10;;
72087;SDS011;59961;50.232;8.616;2023-07-22T00:14:49;11.03;;;6.70;;
72087;SDS011;59961;50.232;8.616;2023-07-22T00:17:15;13.32;;;7.40;;
72087;SDS011;59961;50.232;8.616;2023-07-22T00:19:40;12.37;;;7.07;;
72087;SDS011;59961;50.232;8.616;2023-07-22T00:22:05;13.95;;;7.65;;
72087;SDS011;59961;50.232;8.616;2023-07-22T00:24:31;10.80;;;6.73;;
72087;SDS011;59961;50.232;8.616;2023-07-22T00:26:56;12.33;;;6.67;;
72087;SDS011;59961;50.232;8.616;2023-07-22T00:29:21;14.87;;;7.50;;
72087;SDS011;59961;50.232;8.616;2023-07-22T00:31:46;11.47;;;6.37;;
72087;SDS011;59961;50.232;8.616;2023-07-22T00:34:12;10.55;;;6.00;;
72087;SDS011;59961;50.232;8.616;2023-07-22T00:36:37;12.77;;;6.87;;
72087;SDS011;59961;50.232;8.616;2023-07-22T00:39:02;13.30;;;7.13;;
72087;SDS011;59961;50.232;8.616;2023-07-22T00:41:28;12.60;;;7.23;;
72087;SDS011;59961;50.232;8.616;2023-07-22T00:43:54;14.20;;;7.18;;
72087;SDS011;59961;50.232;8.616;2023-07-22T00:46:19;11.17;;;6.60;;
72087;SDS011;59961;50.232;8.616;2023-07-22T00:48:44;14.60;;;6.85;;
72087;SDS011;59961;50.232;8.616;2023-07-22T00:51:09;10.97;;;6.57;;
72087;SDS011;59961;50.232;8.616;2023-07-22T00:53:34;11.60;;;6.33;;
72087;SDS011;59961;50.232;8.616;2023-07-22T00:55:59;11.77;;;6.47;;
72087;SDS011;59961;50.232;8.616;2023-07-22T00:58:25;14.63;;;6.27;;
72087;SDS011;59961;50.232;8.616;2023-07-22T01:00:50;12.53;;;5.93;;
72087;SDS011;59961;50.232;8.616;2023-07-22T01:14:03;12.57;;;6.55;;
72087;SDS011;59961;50.232;8.616;2023-07-22T01:16:29;11.07;;;6.10;;
72087;SDS011;59961;50.232;8.616;2023-07-22T01:18:54;10.95;;;5.80;;
72087;SDS011;59961;50.232;8.616;2023-07-22T01:21:20;11.03;;;5.90;;
72087;SDS011;59961;50.232;8.616;2023-07-22T01:23:47;12.27;;;6.13;;
72087;SDS011;59961;50.232;8.616;2023-07-22T01:26:12;9.23;;;5.77;;
72087;SDS011;59961;50.232;8.616;2023-07-22T01:28:38;12.87;;;6.57;;
72087;SDS011;59961;50.232;8.616;2023-07-22T01:31:03;13.47;;;6.40;;
72087;SDS011;59961;50.232;8.616;2023-07-22T01:33:30;13.48;;;7.15;;
72087;SDS011;59961;50.232;8.616;2023-07-22T01:35:55;13.63;;;6.70;;
72087;SDS011;59961;50.232;8.616;2023-07-22T01:38:20;12.77;;;6.53;;
72087;SDS011;59961;50.232;8.616;2023-07-22T01:40:45;16.03;;;6.80;;
72087;SDS011;59961;50.232;8.616;2023-07-22T01:43:10;15.13;;;6.70;;
72087;SDS011;59961;50.232;8.616;2023-07-22T01:45:36;13.93;;;6.30;;
72087;SDS011;59961;50.232;8.616;2023-07-22T01:48:02;15.27;;;6.78;;
72087;SDS011;59961;50.232;8.616;2023-07-22T01:50:28;12.57;;;5.83;;
72087;SDS011;59961;50.232;8.616;2023-07-22T01:52:53;12.43;;;6.13;;
72087;SDS011;59961;50.232;8.616;2023-07-22T01:55:18;11.73;;;5.57;;
72087;SDS011;59961;50.232;8.616;2023-07-22T01:57:43;11.60;;;5.47;;
72087;SDS011;59961;50.232;8.616;2023-07-22T02:00:09;15.70;;;6.43;;
72087;SDS011;59961;50.232;8.616;2023-07-22T02:02:35;11.70;;;6.40;;
72087;SDS011;59961;50.232;8.616;2023-07-22T02:05:01;12.40;;;6.10;;
72087;SDS011;59961;50.232;8.616;2023-07-22T02:07:26;12.30;;;6.25;;
72087;SDS011;59961;50.232;8.616;2023-07-22T02:09:53;10.13;;;5.97;;
72087;SDS011;59961;50.232;8.616;2023-07-22T02:12:19;13.87;;;6.43;;
72087;SDS011;59961;50.232;8.616;2023-07-22T02:14:44;20.20;;;6.47;;
72087;SDS011;59961;50.232;8.616;2023-07-22T02:17:09;11.60;;;5.47;;
72087;SDS011;59961;50.232;8.616;2023-07-22T02:19:35;11.15;;;6.10;;
72087;SDS011;59961;50.232;8.616;2023-07-22T02:22:02;11.03;;;6.13;;
72087;SDS011;59961;50.232;8.616;2023-07-22T02:24:27;11.57;;;5.68;;
72087;SDS011;59961;50.232;8.616;2023-07-22T02:26:53;12.60;;;5.80;;
72087;SDS011;59961;50.232;8.616;2023-07-22T02:29:18;10.20;;;5.60;;
72087;SDS011;59961;50.232;8.616;2023-07-22T02:31:47;11.63;;;6.07;;
72087;SDS011;59961;50.232;8.616;2023-07-22T02:34:13;12.50;;;5.90;;
72087;SDS011;59961;50.232;8.616;2023-07-22T02:36:38;11.80;;;5.17;;
72087;SDS011;59961;50.232;8.616;2023-07-22T02:39:03;10.77;;;5.47;;
72087;SDS011;59961;50.232;8.616;2023-07-22T02:41:28;12.23;;;5.30;;
72087;SDS011;59961;50.232;8.616;2023-07-22T02:43:53;15.50;;;6.10;;
72087;SDS011;59961;50.232;8.616;2023-07-22T02:46:19;11.00;;;5.78;;
72087;SDS011;59961;50.232;8.616;2023-07-22T02:48:44;11.45;;;6.03;;
72087;SDS011;59961;50.232;8.616;2023-07-22T02:51:09;11.73;;;6.00;;
72087;SDS011;59961;50.232;8.616;2023-07-22T02:53:35;12.60;;;6.05;;
72087;SDS011;59961;50.232;8.616;2023-07-22T02:56:04;13.40;;;6.65;;
72087;SDS011;59961;50.232;8.616;2023-07-22T02:58:29;12.47;;;6.70;;
72087;SDS011;59961;50.232;8.616;2023-07-22T03:00:54;16.30;;;5.77;;
72087;SDS011;59961;50.232;8.616;2023-07-22T03:03:20;10.60;;;5.47;;
72087;SDS011;59961;50.232;8.616;2023-07-22T03:05:46;10.68;;;5.53;;
72087;SDS011;59961;50.232;8.616;2023-07-22T03:08:12;11.15;;;5.53;;
72087;SDS011;59961;50.232;8.616;2023-07-22T03:10:37;10.57;;;6.23;;
72087;SDS011;59961;50.232;8.616;2023-07-22T03:13:03;12.43;;;6.00;;
72087;SDS011;59961;50.232;8.616;2023-07-22T03:15:29;11.50;;;5.67;;
72087;SDS011;59961;50.232;8.616;2023-07-22T03:17:55;14.10;;;5.93;;
72087;SDS011;59961;50.232;8.616;2023-07-22T03:20:26;9.75;;;4.90;;
72087;SDS011;59961;50.232;8.616;2023-07-22T03:22:51;16.77;;;5.83;;
72087;SDS011;59961;50.232;8.616;2023-07-22T03:25:17;13.13;;;4.60;;
72087;SDS011;59961;50.232;8.616;2023-07-22T03:27:42;11.37;;;5.20;;
72087;SDS011;59961;50.232;8.616;2023-07-22T03:30:08;11.32;;;5.45;;
72087;SDS011;59961;50.232;8.616;2023-07-22T03:32:35;11.70;;;5.13;;
72087;SDS011;59961;50.232;8.616;2023-07-22T03:35:00;9.77;;;4.90;;
72087;SDS011;59961;50.232;8.616;2023-07-22T03:37:26;10.17;;;4.97;;
72087;SDS011;59961;50.232;8.616;2023-07-22T03:39:51;12.83;;;5.70;;
72087;SDS011;59961;50.232;8.616;2023-07-22T03:42:17;12.10;;;5.88;;
72087;SDS011;59961;50.232;8.616;2023-07-22T03:44:42;11.90;;;4.97;;
72087;SDS011;59961;50.232;8.616;2023-07-22T03:47:07;12.53;;;6.27;;
72087;SDS011;59961;50.232;8.616;2023-07-22T03:49:32;12.20;;;4.73;;
72087;SDS011;59961;50.232;8.616;2023-07-22T03:51:58;8.93;;;4.80;;
72087;SDS011;59961;50.232;8.616;2023-07-22T03:54:23;10.03;;;5.10;;
72087;SDS011;59961;50.232;8.616;2023-07-22T03:56:48;11.33;;;5.07;;
72087;SDS011;59961;50.232;8.616;2023-07-22T03:59:13;11.10;;;5.23;;
72087;SDS011;59961;50.232;8.616;2023-07-22T04:01:38;9.50;;;5.07;;
72087;SDS011;59961;50.232;8.616;2023-07-22T04:04:04;11.17;;;5.67;;
72087;SDS011;59961;50.232;8.616;2023-07-22T04:06:29;10.63;;;6.15;;
72087;SDS011;59961;50.232;8.616;2023-07-22T04:08:54;14.47;;;5.83;;
72087;SDS011;59961;50.232;8.616;2023-07-22T04:11:19;14.07;;;5.67;;
72087;SDS011;59961;50.232;8.616;2023-07-22T04:13:45;12.93;;;5.90;;
72087;SDS011;59961;50.232;8.616;2023-07-22T04:16:10;13.50;;;6.70;;
72087;SDS011;59961;50.232;8.616;2023-07-22T04:18:35;13.45;;;5.63;;
72087;SDS011;59961;50.232;8.616;2023-07-22T04:21:00;10.02;;;5.32;;
72087;SDS011;59961;50.232;8.616;2023-07-22T04:23:26;13.33;;;5.43;;
72087;SDS011;59961;50.232;8.616;2023-07-22T04:25:51;12.93;;;5.43;;
72087;SDS011;59961;50.232;8.616;2023-07-22T04:28:16;12.33;;;6.03;;
72087;SDS011;59961;50.232;8.616;2023-07-22T04:30:41;12.38;;;5.97;;
72087;SDS011;59961;50.232;8.616;2023-07-22T04:33:06;14.90;;;5.63;;
72087;SDS011;59961;50.232;8.616;2023-07-22T04:35:36;13.15;;;5.97;;
72087;SDS011;59961;50.232;8.616;2023-07-22T04:38:03;13.68;;;6.13;;
72087;SDS011;59961;50.232;8.616;2023-07-22T04:40:29;13.05;;;5.53;;
72087;SDS011;59961;50.232;8.616;2023-07-22T04:42:55;13.47;;;6.07;;
72087;SDS011;59961;50.232;8.616;2023-07-22T04:45:21;16.85;;;6.75;;
72087;SDS011;59961;50.232;8.616;2023-07-22T04:47:48;19.67;;;6.68;;
72087;SDS011;59961;50.232;8.616;2023-07-22T04:50:13;16.30;;;5.97;;
72087;SDS011;59961;50.232;8.616;2023-07-22T04:52:39;12.17;;;5.70;;
72087;SDS011;59961;50.232;8.616;2023-07-22T04:55:06;12.40;;;5.53;;
72087;SDS011;59961;50.232;8.616;2023-07-22T04:57:43;14.10;;;5.40;;
72087;SDS011;59961;50.232;8.616;2023-07-22T05:00:10;12.32;;;5.65;;
72087;SDS011;59961;50.232;8.616;2023-07-22T05:02:39;10.63;;;5.90;;
72087;SDS011;59961;50.232;8.616;2023-07-22T05:05:04;12.60;;;5.97;;
72087;SDS011;59961;50.232;8.616;2023-07-22T05:07:29;12.47;;;5.87;;
72087;SDS011;59961;50.232;8.616;2023-07-22T05:09:56;13.27;;;6.80;;
72087;SDS011;59961;50.232;8.616;2023-07-22T05:12:21;12.82;;;6.40;;
72087;SDS011;59961;50.232;8.616;2023-07-22T05:14:46;13.30;;;6.87;;
72087;SDS011;59961;50.232;8.616;2023-07-22T05:17:11;12.17;;;6.43;;
72087;SDS011;59961;50.232;8.616;2023-07-22T05:19:36;16.97;;;7.40;;
72087;SDS011;59961;50.232;8.616;2023-07-22T05:22:01;13.87;;;6.57;;
72087;SDS011;59961;50.232;8.616;2023-07-22T05:24:27;14.67;;;6.70;;
72087;SDS011;59961;50.232;8.616;2023-07-22T05:26:52;13.50;;;6.68;;
72087;SDS011;59961;50.232;8.616;2023-07-22T05:29:18;12.02;;;6.00;;
72087;SDS011;59961;50.232;8.616;2023-07-22T05:31:44;12.15;;;6.57;;
72087;SDS011;59961;50.232;8.616;2023-07-22T05:34:09;12.23;;;6.63;;
72087;SDS011;59961;50.232;8.616;2023-07-22T05:36:34;12.67;;;6.67;;
72087;SDS011;59961;50.232;8.616;2023-07-22T05:38:59;12.95;;;6.10;;
72087;SDS011;59961;50.232;8.616;2023-07-22T05:41:25;12.32;;;6.07;;
72087;SDS011;59961;50.232;8.616;2023-07-22T05:43:51;13.02;;;6.32;;
72087;SDS011;59961;50.232;8.616;2023-07-22T05:46:16;13.07;;;6.40;;
72087;SDS011;59961;50.232;8.616;2023-07-22T05:48:41;14.27;;;7.22;;
72087;SDS011;59961;50.232;8.616;2023-07-22T05:51:06;12.52;;;6.97;;
72087;SDS011;59961;50.232;8.616;2023-07-22T05:53:32;16.08;;;7.40;;
72087;SDS011;59961;50.232;8.616;2023-07-22T05:55:57;14.87;;;7.07;;
72087;SDS011;59961;50.232;8.616;2023-07-22T05:58:22;15.07;;;7.03;;
72087;SDS011;59961;50.232;8.616;2023-07-22T06:00:47;16.90;;;7.55;;
72087;SDS011;59961;50.232;8.616;2023-07-22T06:03:14;12.70;;;6.25;;
72087;SDS011;59961;50.232;8.616;2023-07-22T06:05:39;13.77;;;7.37;;
72087;SDS011;59961;50.232;8.616;2023-07-22T06:08:04;14.60;;;6.83;;
72087;SDS011;59961;50.232;8.616;2023-07-22T06:10:30;16.05;;;7.50;;
72087;SDS011;59961;50.232;8.616;2023-07-22T06:12:55;13.23;;;7.37;;
72087;SDS011;59961;50.232;8.616;2023-07-22T06:15:20;12.52;;;6.80;;
72087;SDS011;59961;50.232;8.616;2023-07-22T06:17:45;13.70;;;8.15;;
72087;SDS011;59961;50.232;8.616;2023-07-22T06:20:11;15.13;;;7.40;;
72087;SDS011;59961;50.232;8.616;2023-07-22T06:22:36;11.93;;;7.13;;
72087;SDS011;59961;50.232;8.616;2023-07-22T06:25:01;13.32;;;7.15;;
72087;SDS011;59961;50.232;8.616;2023-07-22T06:27:26;14.65;;;7.00;;
72087;SDS011;59961;50.232;8.616;2023-07-22T06:29:52;12.13;;;6.65;;
72087;SDS011;59961;50.232;8.616;2023-07-22T06:32:18;11.63;;;6.20;;
72087;SDS011;59961;50.232;8.616;2023-07-22T06:34:43;12.57;;;6.30;;
72087;SDS011;59961;50.232;8.616;2023-07-22T06:37:09;11.32;;;6.25;;
72087;SDS011;59961;50.232;8.616;2023-07-22T06:39:36;14.23;;;6.40;;
72087;SDS011;59961;50.232;8.616;2023-07-22T06:42:01;13.00;;;6.50;;
72087;SDS011;59961;50.232;8.616;2023-07-22T06:44:27;11.27;;;5.70;;
72087;SDS011;59961;50.232;8.616;2023-07-22T06:46:54;11.57;;;6.03;;
72087;SDS011;59961;50.232;8.616;2023-07-22T06:49:20;11.45;;;6.35;;
72087;SDS011;59961;50.232;8.616;2023-07-22T06:51:45;11.98;;;6.78;;
72087;SDS011;59961;50.232;8.616;2023-07-22T06:54:11;11.27;;;6.40;;
72087;SDS011;59961;50.232;8.616;2023-07-22T06:56:36;10.98;;;6.30;;
72087;SDS011;59961;50.232;8.616;2023-07-22T06:59:01;11.47;;;6.40;;
72087;SDS011;59961;50.232;8.616;2023-07-22T07:01:27;14.43;;;6.83;;
72087;SDS011;59961;50.232;8.616;2023-07-22T07:03:52;13.40;;;6.05;;
72087;SDS011;59961;50.232;8.616;2023-07-22T07:06:17;12.82;;;6.30;;
72087;SDS011;59961;50.232;8.616;2023-07-22T07:08:43;15.57;;;6.27;;
72087;SDS011;59961;50.232;8.616;2023-07-22T08:19:43;9.35;;;4.80;;
72087;SDS011;59961;50.232;8.616;2023-07-22T08:24:43;12.52;;;5.20;;
72087;SDS011;59961;50.232;8.616;2023-07-22T08:27:08;10.17;;;5.13;;
72087;SDS011;59961;50.232;8.616;2023-07-22T08:29:34;9.57;;;5.37;;
72087;SDS011;59961;50.232;8.616;2023-07-22T08:31:59;10.60;;;5.37;;
72087;SDS011;59961;50.232;8.616;2023-07-22T08:34:25;8.67;;;4.70;;
72087;SDS011;59961;50.232;8.616;2023-07-22T08:36:51;9.05;;;4.55;;
72087;SDS011;59961;50.232;8.616;2023-07-22T08:39:17;9.65;;;5.22;;
72087;SDS011;59961;50.232;8.616;2023-07-22T08:41:42;11.52;;;5.43;;
72087;SDS011;59961;50.232;8.616;2023-07-22T08:44:10;11.73;;;4.80;;
72087;SDS011;59961;50.232;8.616;2023-07-22T08:46:35;12.73;;;5.17;;
72087;SDS011;59961;50.232;8.616;2023-07-22T08:49:01;10.80;;;4.82;;
72087;SDS011;59961;50.232;8.616;2023-07-22T08:51:28;10.95;;;5.15;;
72087;SDS011;59961;50.232;8.616;2023-07-22T08:53:54;12.43;;;4.90;;
72087;SDS011;59961;50.232;8.616;2023-07-22T08:56:22;7.47;;;4.03;;
72087;SDS011;59961;50.232;8.616;2023-07-22T08:58:47;8.75;;;4.28;;
72087;SDS011;59961;50.232;8.616;2023-07-22T09:01:13;16.80;;;5.20;;
72087;SDS011;59961;50.232;8.616;2023-07-22T09:03:38;11.70;;;5.53;;
72087;SDS011;59961;50.232;8.616;2023-07-22T09:06:04;13.52;;;4.55;;
72087;SDS011;59961;50.232;8.616;2023-07-22T09:08:29;9.73;;;4.47;;
72087;SDS011;59961;50.232;8.616;2023-07-22T09:10:54;8.53;;;4.50;;
72087;SDS011;59961;50.232;8.616;2023-07-22T09:13:20;7.90;;;4.47;;
72087;SDS011;59961;50.232;8.616;2023-07-22T09:15:46;7.20;;;3.53;;
72087;SDS011;59961;50.232;8.616;2023-07-22T09:18:12;8.77;;;4.45;;
72087;SDS011;59961;50.232;8.616;2023-07-22T09:20:40;9.27;;;4.72;;
72087;SDS011;59961;50.232;8.616;2023-07-22T09:23:05;8.70;;;4.70;;
72087;SDS011;59961;50.232;8.616;2023-07-22T09:25:30;6.83;;;3.90;;
72087;SDS011;59961;50.232;8.616;2023-07-22T09:27:59;6.82;;;3.38;;
72087;SDS011;59961;50.232;8.616;2023-07-22T09:30:28;8.45;;;4.03;;
72087;SDS011;59961;50.232;8.616;2023-07-22T09:32:55;8.03;;;3.93;;
72087;SDS011;59961;50.232;8.616;2023-07-22T09:35:20;8.20;;;3.88;;
72087;SDS011;59961;50.232;8.616;2023-07-22T09:37:46;7.47;;;4.05;;
72087;SDS011;59961;50.232;8.616;2023-07-22T09:42:42;8.75;;;3.90;;
72087;SDS011;59961;50.232;8.616;2023-07-22T09:45:08;6.83;;;3.20;;
72087;SDS011;59961;50.232;8.616;2023-07-22T09:47:39;6.55;;;2.95;;
72087;SDS011;59961;50.232;8.616;2023-07-22T09:50:04;8.23;;;3.37;;
72087;SDS011;59961;50.232;8.616;2023-07-22T09:52:30;6.22;;;3.35;;
72087;SDS011;59961;50.232;8.616;2023-07-22T09:54:55;5.95;;;2.65;;
72087;SDS011;59961;50.232;8.616;2023-07-22T09:57:21;5.40;;;2.57;;
72087;SDS011;59961;50.232;8.616;2023-07-22T09:59:46;7.65;;;3.38;;
72087;SDS011;59961;50.232;8.616;2023-07-22T10:02:13;6.43;;;2.88;;
72087;SDS011;59961;50.232;8.616;2023-07-22T10:04:41;7.43;;;3.25;;
72087;SDS011;59961;50.232;8.616;2023-07-22T10:07:07;6.13;;;3.27;;
72087;SDS011;59961;50.232;8.616;2023-07-22T10:09:32;8.63;;;3.40;;
72087;SDS011;59961;50.232;8.616;2023-07-22T10:11:58;7.85;;;2.92;;
72087;SDS011;59961;50.232;8.616;2023-07-22T10:14:24;7.43;;;2.87;;
72087;SDS011;59961;50.232;8.616;2023-07-22T10:16:49;5.27;;;2.80;;
72087;SDS011;59961;50.232;8.616;2023-07-22T10:19:14;6.10;;;3.17;;
72087;SDS011;59961;50.232;8.616;2023-07-22T10:21:40;6.70;;;2.70;;
72087;SDS011;59961;50.232;8.616;2023-07-22T10:24:06;5.70;;;2.90;;
72087;SDS011;59961;50.232;8.616;2023-07-22T10:26:31;7.40;;;3.10;;
72087;SDS011;59961;50.232;8.616;2023-07-22T10:28:57;6.68;;;2.60;;
72087;SDS011;59961;50.232;8.616;2023-07-22T10:31:23;7.38;;;2.70;;
72087;SDS011;59961;50.232;8.616;2023-07-22T10:33:48;14.53;;;2.60;;
72087;SDS011;59961;50.232;8.616;2023-07-22T10:36:14;5.63;;;2.80;;
72087;SDS011;59961;50.232;8.616;2023-07-22T10:38:40;5.47;;;2.55;;
72087;SDS011;59961;50.232;8.616;2023-07-22T10:41:13;6.40;;;3.10;;
72087;SDS011;59961;50.232;8.616;2023-07-22T10:43:38;8.52;;;2.60;;
72087;SDS011;59961;50.232;8.616;2023-07-22T10:46:09;6.93;;;2.93;;
72087;SDS011;59961;50.232;8.616;2023-07-22T10:48:35;7.28;;;2.63;;
72087;SDS011;59961;50.232;8.616;2023-07-22T10:51:06;5.78;;;2.40;;
72087;SDS011;59961;50.232;8.616;2023-07-22T10:53:31;5.47;;;2.47;;
72087;SDS011;59961;50.232;8.616;2023-07-22T10:58:24;5.10;;;2.50;;
72087;SDS011;59961;50.232;8.616;2023-07-22T11:00:49;4.60;;;2.40;;
72087;SDS011;59961;50.232;8.616;2023-07-22T11:03:15;10.40;;;2.47;;
72087;SDS011;59961;50.232;8.616;2023-07-22T11:05:47;6.40;;;2.53;;
72087;SDS011;59961;50.232;8.616;2023-07-22T11:08:12;6.40;;;2.47;;
72087;SDS011;59961;50.232;8.616;2023-07-22T11:10:37;5.37;;;2.37;;
72087;SDS011;59961;50.232;8.616;2023-07-22T11:13:16;4.38;;;2.22;;
72087;SDS011;59961;50.232;8.616;2023-07-22T11:15:46;5.35;;;2.60;;
72087;SDS011;59961;50.232;8.616;2023-07-22T11:18:11;6.03;;;2.90;;
72087;SDS011;59961;50.232;8.616;2023-07-22T11:20:37;6.28;;;2.50;;
72087;SDS011;59961;50.232;8.616;2023-07-22T11:23:02;6.35;;;2.30;;
72087;SDS011;59961;50.232;8.616;2023-07-22T11:25:27;5.70;;;2.40;;
72087;SDS011;59961;50.232;8.616;2023-07-22T11:27:52;4.93;;;2.43;;
72087;SDS011;59961;50.232;8.616;2023-07-22T11:30:18;4.90;;;2.60;;
72087;SDS011;59961;50.232;8.616;2023-07-22T11:32:43;5.28;;;2.13;;
72087;SDS011;59961;50.232;8.616;2023-07-22T11:35:09;4.88;;;2.42;;
72087;SDS011;59961;50.232;8.616;2023-07-22T11:37:35;4.53;;;2.15;;
72087;SDS011;59961;50.232;8.616;2023-07-22T11:40:00;5.43;;;2.47;;
72087;SDS011;59961;50.232;8.616;2023-07-22T11:42:26;5.90;;;2.67;;
72087;SDS011;59961;50.232;8.616;2023-07-22T11:44:51;6.07;;;2.67;;
72087;SDS011;59961;50.232;8.616;2023-07-22T11:47:16;6.57;;;2.90;;
72087;SDS011;59961;50.232;8.616;2023-07-22T11:49:41;7.03;;;3.33;;
72087;SDS011;59961;50.232;8.616;2023-07-22T11:52:15;6.13;;;2.80;;
72087;SDS011;59961;50.232;8.616;2023-07-22T11:54:41;6.13;;;2.43;;
72087;SDS011;59961;50.232;8.616;2023-07-22T11:57:13;6.18;;;2.53;;
72087;SDS011;59961;50.232;8.616;2023-07-22T11:59:40;6.07;;;2.63;;
72087;SDS011;59961;50.232;8.616;2023-07-22T12:02:12;6.18;;;2.13;;
72087;SDS011;59961;50.232;8.616;2023-07-22T12:04:37;6.93;;;2.92;;
72087;SDS011;59961;50.232;8.616;2023-07-22T12:07:03;5.40;;;2.23;;
72087;SDS011;59961;50.232;8.616;2023-07-22T12:09:29;6.13;;;2.30;;
72087;SDS011;59961;50.232;8.616;2023-07-22T12:11:55;6.33;;;3.00;;
72087;SDS011;59961;50.232;8.616;2023-07-22T12:14:20;6.68;;;2.40;;
72087;SDS011;59961;50.232;8.616;2023-07-22T12:16:45;5.20;;;2.63;;
72087;SDS011;59961;50.232;8.616;2023-07-22T12:19:11;7.63;;;3.00;;
72087;SDS011;59961;50.232;8.616;2023-07-22T12:21:36;5.90;;;2.80;;
72087;SDS011;59961;50.232;8.616;2023-07-22T12:24:01;7.47;;;2.70;;
72087;SDS011;59961;50.232;8.616;2023-07-22T12:26:27;6.03;;;3.27;;
72087;SDS011;59961;50.232;8.616;2023-07-22T12:28:52;6.53;;;2.90;;
72087;SDS011;59961;50.232;8.616;2023-07-22T12:31:18;5.63;;;2.73;;
72087;SDS011;59961;50.232;8.616;2023-07-22T12:33:43;5.70;;;2.50;;
72087;SDS011;59961;50.232;8.616;2023-07-22T12:36:08;5.53;;;2.67;;
72087;SDS011;59961;50.232;8.616;2023-07-22T12:38:34;5.53;;;2.60;;
72087;SDS011;59961;50.232;8.616;2023-07-22T12:41:00;6.43;;;3.00;;
72087;SDS011;59961;50.232;8.616;2023-07-22T12:43:25;6.37;;;2.87;;
72087;SDS011;59961;50.232;8.616;2023-07-22T12:45:50;6.47;;;2.83;;
72087;SDS011;59961;50.232;8.616;2023-07-22T12:48:16;5.13;;;2.60;;
72087;SDS011;59961;50.232;8.616;2023-07-22T12:50:42;8.80;;;2.87;;
72087;SDS011;59961;50.232;8.616;2023-07-22T12:53:07;6.33;;;2.80;;
72087;SDS011;59961;50.232;8.616;2023-07-22T12:55:33;5.18;;;2.55;;
72087;SDS011;59961;50.232;8.616;2023-07-22T12:57:58;5.28;;;2.55;;
72087;SDS011;59961;50.232;8.616;2023-07-22T13:00:23;6.30;;;2.72;;
72087;SDS011;59961;50.232;8.616;2023-07-22T13:02:48;5.63;;;2.58;;
72087;SDS011;59961;50.232;8.616;2023-07-22T13:05:13;5.00;;;2.33;;
72087;SDS011;59961;50.232;8.616;2023-07-22T13:07:39;5.32;;;2.42;;
72087;SDS011;59961;50.232;8.616;2023-07-22T13:10:04;10.57;;;2.87;;
72087;SDS011;59961;50.232;8.616;2023-07-22T13:12:34;4.95;;;2.60;;
72087;SDS011;59961;50.232;8.616;2023-07-22T13:14:59;6.00;;;2.60;;
72087;SDS011;59961;50.232;8.616;2023-07-22T13:17:25;7.57;;;3.10;;
72087;SDS011;59961;50.232;8.616;2023-07-22T13:19:50;4.25;;;2.15;;
72087;SDS011;59961;50.232;8.616;2023-07-22T13:22:15;5.30;;;2.78;;
72087;SDS011;59961;50.232;8.616;2023-07-22T13:24:40;5.00;;;2.53;;
72087;SDS011;59961;50.232;8.616;2023-07-22T13:27:06;5.23;;;2.63;;
72087;SDS011;59961;50.232;8.616;2023-07-22T13:29:31;5.60;;;2.80;;
72087;SDS011;59961;50.232;8.616;2023-07-22T13:31:56;4.40;;;2.30;;
72087;SDS011;59961;50.232;8.616;2023-07-22T13:34:22;4.67;;;2.47;;
72087;SDS011;59961;50.232;8.616;2023-07-22T13:36:47;5.33;;;2.80;;
72087;SDS011;59961;50.232;8.616;2023-07-22T13:39:12;6.78;;;2.70;;
72087;SDS011;59961;50.232;8.616;2023-07-22T13:41:37;5.63;;;2.28;;
72087;SDS011;59961;50.232;8.616;2023-07-22T13:44:02;6.93;;;2.63;;
72087;SDS011;59961;50.232;8.616;2023-07-22T13:46:27;4.93;;;2.30;;
72087;SDS011;59961;50.232;8.616;2023-07-22T13:48:53;6.00;;;2.47;;
72087;SDS011;59961;50.232;8.616;2023-07-22T13:51:18;5.00;;;2.10;;
72087;SDS011;59961;50.232;8.616;2023-07-22T13:53:43;6.88;;;2.70;;
72087;SDS011;59961;50.232;8.616;2023-07-22T13:56:08;5.03;;;2.60;;
72087;SDS011;59961;50.232;8.616;2023-07-22T13:58:33;5.68;;;2.55;;
72087;SDS011;59961;50.232;8.616;2023-07-22T14:00:58;5.40;;;2.50;;
72087;SDS011;59961;50.232;8.616;2023-07-22T14:03:23;5.63;;;2.35;;
72087;SDS011;59961;50.232;8.616;2023-07-22T14:05:48;4.97;;;2.30;;
72087;SDS011;59961;50.232;8.616;2023-07-22T14:08:14;5.67;;;2.57;;
72087;SDS011;59961;50.232;8.616;2023-07-22T14:10:39;5.50;;;2.07;;
72087;SDS011;59961;50.232;8.616;2023-07-22T14:13:04;4.20;;;2.20;;
72087;SDS011;59961;50.232;8.616;2023-07-22T14:15:29;4.97;;;2.30;;
72087;SDS011;59961;50.232;8.616;2023-07-22T14:17:55;5.38;;;2.75;;
72087;SDS011;59961;50.232;8.616;2023-07-22T14:20:20;6.27;;;2.90;;
72087;SDS011;59961;50.232;8.616;2023-07-22T14:22:45;5.07;;;2.40;;
72087;SDS011;59961;50.232;8.616;2023-07-22T14:25:11;6.67;;;2.73;;
72087;SDS011;59961;50.232;8.616;2023-07-22T14:27:39;6.63;;;2.43;;
72087;SDS011;59961;50.232;8.616;2023-07-22T14:30:05;5.43;;;2.33;;
72087;SDS011;59961;50.232;8.616;2023-07-22T14:32:31;5.38;;;2.28;;
72087;SDS011;59961;50.232;8.616;2023-07-22T14:34:56;5.13;;;2.27;;
72087;SDS011;59961;50.232;8.616;2023-07-22T14:37:21;5.73;;;2.40;;
72087;SDS011;59961;50.232;8.616;2023-07-22T14:39:46;5.70;;;2.50;;
72087;SDS011;59961;50.232;8.616;2023-07-22T14:42:11;4.70;;;2.23;;
72087;SDS011;59961;50.232;8.616;2023-07-22T14:44:37;6.22;;;2.42;;
72087;SDS011;59961;50.232;8.616;2023-07-22T14:47:02;4.32;;;1.90;;
72087;SDS011;59961;50.232;8.616;2023-07-22T14:49:27;4.77;;;2.20;;
72087;SDS011;59961;50.232;8.616;2023-07-22T14:51:52;4.67;;;2.13;;
72087;SDS011;59961;50.232;8.616;2023-07-22T14:54:17;4.80;;;2.67;;
72087;SDS011;59961;50.232;8.616;2023-07-22T14:56:43;4.63;;;2.13;;
72087;SDS011;59961;50.232;8.616;2023-07-22T14:59:08;7.75;;;2.60;;
72087;SDS011;59961;50.232;8.616;2023-07-22T15:01:39;7.35;;;2.33;;
72087;SDS011;59961;50.232;8.616;2023-07-22T15:04:04;4.75;;;2.40;;
72087;SDS011;59961;50.232;8.616;2023-07-22T15:06:30;7.20;;;3.00;;
72087;SDS011;59961;50.232;8.616;2023-07-22T15:08:56;7.67;;;3.60;;
72087;SDS011;59961;50.232;8.616;2023-07-22T15:11:21;5.80;;;3.10;;
72087;SDS011;59961;50.232;8.616;2023-07-22T15:13:46;5.82;;;2.85;;
72087;SDS011;59961;50.232;8.616;2023-07-22T15:16:11;6.75;;;3.05;;
72087;SDS011;59961;50.232;8.616;2023-07-22T15:18:36;7.47;;;2.95;;
72087;SDS011;59961;50.232;8.616;2023-07-22T15:21:02;4.30;;;2.30;;
72087;SDS011;59961;50.232;8.616;2023-07-22T15:23:27;7.00;;;3.00;;
72087;SDS011;59961;50.232;8.616;2023-07-22T15:25:52;8.63;;;3.57;;
72087;SDS011;59961;50.232;8.616;2023-07-22T15:28:17;4.68;;;2.40;;
72087;SDS011;59961;50.232;8.616;2023-07-22T15:30:42;7.43;;;2.60;;
72087;SDS011;59961;50.232;8.616;2023-07-22T15:33:07;4.80;;;2.40;;
72087;SDS011;59961;50.232;8.616;2023-07-22T15:35:33;5.43;;;2.30;;
72087;SDS011;59961;50.232;8.616;2023-07-22T15:37:58;5.90;;;2.47;;
72087;SDS011;59961;50.232;8.616;2023-07-22T15:40:23;6.60;;;2.38;;
72087;SDS011;59961;50.232;8.616;2023-07-22T15:42:49;4.43;;;2.03;;
72087;SDS011;59961;50.232;8.616;2023-07-22T15:45:14;4.83;;;2.33;;
72087;SDS011;59961;50.232;8.616;2023-07-22T15:47:39;4.72;;;2.10;;
72087;SDS011;59961;50.232;8.616;2023-07-22T15:50:05;6.63;;;2.70;;
72087;SDS011;59961;50.232;8.616;2023-07-22T15:52:30;5.57;;;2.50;;
72087;SDS011;59961;50.232;8.616;2023-07-22T15:54:55;5.63;;;2.40;;
72087;SDS011;59961;50.232;8.616;2023-07-22T15:57:20;4.93;;;2.03;;